Time;durP1;ratioP1;P1;durP2;ratioP2;P2;SDS_P1;SDS_P2;PMS_P1;PMS_P2;Temp;Humidity;BMP_temperature;BMP_pressure;BME280_temperature;BME280_humidity;BME280_pressure;Samples;Min_cycle;Max_cycle;Signal;HPM_P1;HPM_P2
2022/12/27 00:00:06;;;;;;;6.65;2.30;;;;;;;;;;5164479;27;20161;-71
2022/12/27 00:02:34;;;;;;;10.65;2.78;;;;;;;;;;5166365;27;20050;-70
2022/12/27 00:05:00;;;;;;;10.57;3.22;;;;;;;;;;5160809;27;20090;-71
2022/12/27 00:07:27;;;;;;;5.68;2.40;;;;;;;;;;5164888;27;20830;-70
2022/12/27 00:09:53;;;;;;;7.32;2.90;;;;;;;;;;5164219;27;20485;-69
2022/12/27 00:12:19;;;;;;;13.70;2.92;;;;;;;;;;5147209;27;20130;-72
2022/12/27 00:14:45;;;;;;;12.27;3.00;;;;;;;;;;5164196;27;20628;-71
2022/12/27 00:17:12;;;;;;;3.17;2.17;;;;;;;;;;5165659;27;20047;-70
2022/12/27 00:19:38;;;;;;;11.07;2.63;;;;;;;;;;5165071;27;20061;-69
2022/12/27 00:22:05;;;;;;;7.72;2.53;;;;;;;;;;5158951;27;20164;-71
2022/12/27 00:24:31;;;;;;;17.40;3.45;;;;;;;;;;5164486;27;20883;-69
2022/12/27 00:26:57;;;;;;;8.20;2.50;;;;;;;;;;5166492;27;20495;-71
2022/12/27 00:29:24;;;;;;;12.35;3.13;;;;;;;;;;5152148;27;20083;-72
2022/12/27 00:31:50;;;;;;;8.88;4.22;;;;;;;;;;5164116;27;20060;-71
2022/12/27 00:34:17;;;;;;;6.82;2.63;;;;;;;;;;5165016;27;20047;-72
2022/12/27 00:36:43;;;;;;;10.45;3.75;;;;;;;;;;5163960;27;20138;-70
2022/12/27 00:39:10;;;;;;;7.35;2.45;;;;;;;;;;5154690;27;21048;-71
2022/12/27 00:41:37;;;;;;;10.25;2.83;;;;;;;;;;5165076;27;20051;-72
2022/12/27 00:44:04;;;;;;;12.52;3.72;;;;;;;;;;5165319;27;20479;-72
2022/12/27 00:46:30;;;;;;;18.77;3.50;;;;;;;;;;5153874;27;20051;-71
2022/12/27 00:48:57;;;;;;;4.30;1.75;;;;;;;;;;5164784;27;20135;-71
2022/12/27 00:51:24;;;;;;;5.70;2.33;;;;;;;;;;5163659;27;20058;-72
2022/12/27 00:53:51;;;;;;;5.82;2.58;;;;;;;;;;5164543;27;20691;-71
2022/12/27 00:56:19;;;;;;;7.30;2.30;;;;;;;;;;5157119;27;20085;-71
2022/12/27 00:58:45;;;;;;;10.50;2.17;;;;;;;;;;5165047;27;20133;-71
2022/12/27 01:01:14;;;;;;;10.05;2.65;;;;;;;;;;5163521;27;20051;-70
2022/12/27 01:03:40;;;;;;;8.35;2.97;;;;;;;;;;5165960;27;20051;-72
2022/12/27 01:06:08;;;;;;;11.98;2.60;;;;;;;;;;5144703;27;20051;-71
2022/12/27 01:08:35;;;;;;;13.25;3.58;;;;;;;;;;5160256;27;20530;-71
2022/12/27 01:11:01;;;;;;;7.60;2.30;;;;;;;;;;5164729;27;20723;-71
2022/12/27 01:13:28;;;;;;;13.95;2.40;;;;;;;;;;5144590;27;20519;-71
2022/12/27 01:15:54;;;;;;;8.15;2.58;;;;;;;;;;5161805;27;20081;-71
2022/12/27 01:18:20;;;;;;;5.63;1.90;;;;;;;;;;5163487;27;20997;-71
2022/12/27 01:20:47;;;;;;;8.35;2.95;;;;;;;;;;5154615;27;20050;-72
2022/12/27 01:23:13;;;;;;;8.32;2.20;;;;;;;;;;5138096;27;20482;-70
2022/12/27 01:25:40;;;;;;;4.32;1.52;;;;;;;;;;5162686;27;20186;-70
2022/12/27 01:28:06;;;;;;;5.90;1.90;;;;;;;;;;5163550;27;20051;-70
2022/12/27 01:30:33;;;;;;;8.93;2.50;;;;;;;;;;5163924;27;20057;-71
2022/12/27 01:32:59;;;;;;;6.85;1.88;;;;;;;;;;5160482;27;20051;-71
2022/12/27 01:35:25;;;;;;;7.55;1.90;;;;;;;;;;5160877;27;20169;-71
2022/12/27 01:37:52;;;;;;;5.28;2.10;;;;;;;;;;5160811;27;20054;-71
2022/12/27 01:40:18;;;;;;;9.05;2.00;;;;;;;;;;5164624;27;20047;-71
2022/12/27 01:42:54;;;;;;;4.90;2.13;;;;;;;;;;5163720;27;20062;-71
2022/12/27 01:45:25;;;;;;;7.43;2.53;;;;;;;;;;5148632;27;20051;-70
2022/12/27 01:47:51;;;;;;;7.93;2.22;;;;;;;;;;5166576;27;20046;-71
2022/12/27 01:50:23;;;;;;;10.57;3.30;;;;;;;;;;5162354;27;20146;-71
2022/12/27 01:52:53;;;;;;;6.07;2.67;;;;;;;;;;5163973;27;20054;-71
2022/12/27 01:55:29;;;;;;;13.23;3.88;;;;;;;;;;5163267;27;20054;-70
2022/12/27 01:58:21;;;;;;;7.93;3.05;;;;;;;;;;5164503;27;20058;-70
2022/12/27 02:00:48;;;;;;;11.95;3.53;;;;;;;;;;5118159;27;20043;-71
2022/12/27 02:03:18;;;;;;;12.07;3.33;;;;;;;;;;5152021;27;20520;-70
2022/12/27 02:05:45;;;;;;;12.32;2.40;;;;;;;;;;5162290;27;20162;-69
2022/12/27 02:08:22;;;;;;;6.97;2.58;;;;;;;;;;5162244;27;20125;-71
2022/12/27 02:10:49;;;;;;;9.68;2.92;;;;;;;;;;5159744;27;20051;-70
2022/12/27 02:13:15;;;;;;;3.65;2.38;;;;;;;;;;5162984;27;20051;-70
2022/12/27 02:15:42;;;;;;;10.07;2.70;;;;;;;;;;5162996;27;20523;-70
2022/12/27 02:18:08;;;;;;;7.00;2.08;;;;;;;;;;5163514;27;20138;-70
2022/12/27 02:20:42;;;;;;;3.72;2.03;;;;;;;;;;5163590;27;20103;-70
2022/12/27 02:26:05;;;;;;;2.72;1.70;;;;;;;;;;5161683;27;20111;-71
2022/12/27 02:28:31;;;;;;;10.43;2.22;;;;;;;;;;5164372;27;20047;-70
2022/12/27 02:31:01;;;;;;;12.60;2.33;;;;;;;;;;5163690;27;20050;-71
2022/12/27 02:33:31;;;;;;;7.57;2.75;;;;;;;;;;5160523;27;20047;-70
2022/12/27 02:36:03;;;;;;;7.93;3.05;;;;;;;;;;5163173;27;20130;-71
2022/12/27 02:38:31;;;;;;;7.35;2.78;;;;;;;;;;5162041;27;20209;-72
2022/12/27 02:55:09;;;;;;;10.00;3.30;;;;;;;;;;5151151;27;20709;-71
2022/12/27 02:57:47;;;;;;;10.45;2.85;;;;;;;;;;5163519;27;20050;-71
2022/12/27 03:03:27;;;;;;;6.53;2.78;;;;;;;;;;5155082;27;20485;-71
2022/12/27 03:09:03;;;;;;;8.48;2.97;;;;;;;;;;5157308;27;20549;-70
2022/12/27 03:17:14;;;;;;;10.35;2.92;;;;;;;;;;5167623;27;20107;-71
2022/12/27 03:25:28;;;;;;;12.23;3.67;;;;;;;;;;5157452;27;20057;-71
2022/12/27 03:33:35;;;;;;;10.52;2.67;;;;;;;;;;5167430;27;20079;-70
2022/12/27 03:38:01;;;;;;;9.18;2.90;;;;;;;;;;5167494;27;20065;-70
2022/12/27 03:39:04;;;;;;;10.13;3.28;;;;;;;;;;5164489;27;20058;-71
2022/12/27 03:44:25;;;;;;;11.23;2.78;;;;;;;;;;5166818;27;20501;-70
2022/12/27 03:47:04;;;;;;;10.98;3.00;;;;;;;;;;5163050;27;20156;-70
2022/12/27 03:49:33;;;;;;;7.25;2.67;;;;;;;;;;5164634;27;20505;-70
2022/12/27 03:52:05;;;;;;;9.13;3.17;;;;;;;;;;5163191;27;20530;-71
2022/12/27 03:54:33;;;;;;;10.73;2.35;;;;;;;;;;5150012;27;20066;-70
2022/12/27 03:57:04;;;;;;;8.75;3.28;;;;;;;;;;5166297;27;20050;-71
2022/12/27 03:59:30;;;;;;;14.60;3.20;;;;;;;;;;5162492;27;20108;-72
2022/12/27 04:01:57;;;;;;;15.57;3.10;;;;;;;;;;5165998;27;20054;-71
2022/12/27 04:04:23;;;;;;;7.45;2.22;;;;;;;;;;5163390;27;20063;-70
2022/12/27 04:06:49;;;;;;;7.00;2.75;;;;;;;;;;5165686;27;20046;-71
2022/12/27 04:36:45;;;;;;;11.70;2.53;;;;;;;;;;5163223;27;20080;-71
2022/12/27 04:39:12;;;;;;;12.95;2.67;;;;;;;;;;5146886;27;20074;-71
2022/12/27 04:55:29;;;;;;;11.43;3.10;;;;;;;;;;5162783;27;20043;-71
2022/12/27 04:57:56;;;;;;;6.72;2.67;;;;;;;;;;5145771;27;20043;-71
2022/12/27 05:03:10;;;;;;;7.68;2.33;;;;;;;;;;5150497;27;20504;-71
2022/12/27 05:05:37;;;;;;;10.82;2.60;;;;;;;;;;5164137;27;20643;-71
2022/12/27 05:16:21;;;;;;;11.32;2.65;;;;;;;;;;5166030;27;20051;-71
2022/12/27 05:18:47;;;;;;;9.20;2.95;;;;;;;;;;5164232;27;20058;-71
2022/12/27 05:21:14;;;;;;;17.90;3.13;;;;;;;;;;5158290;27;20524;-72
2022/12/27 05:26:31;;;;;;;11.23;3.00;;;;;;;;;;5164121;27;20098;-72
2022/12/27 05:28:58;;;;;;;10.65;2.80;;;;;;;;;;5165228;27;20448;-70
2022/12/27 05:31:25;;;;;;;14.48;3.45;;;;;;;;;;5162393;27;20138;-72
2022/12/27 05:33:52;;;;;;;11.57;3.05;;;;;;;;;;5165795;27;20051;-70
2022/12/27 05:36:19;;;;;;;9.75;3.00;;;;;;;;;;5164932;27;20520;-70
2022/12/27 05:38:45;;;;;;;8.13;3.00;;;;;;;;;;5152571;27;20134;-71
2022/12/27 05:41:11;;;;;;;8.32;2.33;;;;;;;;;;5164364;27;20534;-71
2022/12/27 05:43:38;;;;;;;10.73;3.55;;;;;;;;;;5165483;27;20454;-71
2022/12/27 05:46:13;;;;;;;6.53;2.63;;;;;;;;;;5163800;27;20062;-71
2022/12/27 05:48:39;;;;;;;11.05;3.03;;;;;;;;;;5153082;27;20043;-71
2022/12/27 05:51:10;;;;;;;10.07;3.70;;;;;;;;;;5163252;27;20050;-70
2022/12/27 05:53:37;;;;;;;12.57;3.10;;;;;;;;;;5162337;27;20051;-72
2022/12/27 05:56:03;;;;;;;9.93;2.17;;;;;;;;;;5158048;27;20061;-70
2022/12/27 05:58:31;;;;;;;16.17;3.03;;;;;;;;;;5161778;27;20050;-72
2022/12/27 06:00:57;;;;;;;7.63;2.70;;;;;;;;;;5150381;27;20047;-71
2022/12/27 06:03:24;;;;;;;15.18;3.30;;;;;;;;;;5163119;27;20133;-71
2022/12/27 06:05:50;;;;;;;9.75;2.90;;;;;;;;;;5154509;27;20054;-69
2022/12/27 06:08:16;;;;;;;19.80;3.47;;;;;;;;;;5156312;27;20047;-70
2022/12/27 06:10:43;;;;;;;5.60;2.40;;;;;;;;;;5157900;27;20053;-68
2022/12/27 06:13:09;;;;;;;15.38;3.42;;;;;;;;;;5155679;27;20047;-70
2022/12/27 06:15:36;;;;;;;14.65;3.03;;;;;;;;;;5158063;27;20055;-70
2022/12/27 06:18:02;;;;;;;8.30;2.88;;;;;;;;;;5160968;27;20497;-71
2022/12/27 06:20:29;;;;;;;11.15;2.90;;;;;;;;;;5164377;27;20082;-71
2022/12/27 06:22:57;;;;;;;16.20;3.35;;;;;;;;;;5163257;27;20055;-71
2022/12/27 06:25:23;;;;;;;11.32;3.35;;;;;;;;;;5161539;27;20051;-70
2022/12/27 06:27:49;;;;;;;14.07;2.92;;;;;;;;;;5162386;27;20416;-70
2022/12/27 06:30:15;;;;;;;12.13;3.25;;;;;;;;;;5161168;27;20576;-70
2022/12/27 06:32:42;;;;;;;8.50;2.97;;;;;;;;;;5162559;27;20073;-70
2022/12/27 06:35:10;;;;;;;8.98;2.85;;;;;;;;;;5165090;27;20055;-70
2022/12/27 06:37:36;;;;;;;8.85;2.65;;;;;;;;;;5158606;27;20142;-69
2022/12/27 06:40:03;;;;;;;9.07;2.35;;;;;;;;;;5161981;27;20604;-70
2022/12/27 06:42:29;;;;;;;15.60;2.85;;;;;;;;;;5164212;27;20042;-71
2022/12/27 06:44:56;;;;;;;11.13;2.75;;;;;;;;;;5162886;27;20111;-69
2022/12/27 06:47:22;;;;;;;7.70;2.50;;;;;;;;;;5163399;27;20050;-71
2022/12/27 06:49:48;;;;;;;10.13;2.70;;;;;;;;;;5169319;27;20053;-71
2022/12/27 06:52:15;;;;;;;13.13;3.05;;;;;;;;;;5168151;27;20629;-70
2022/12/27 06:54:41;;;;;;;10.85;2.85;;;;;;;;;;5166475;27;20054;-70
2022/12/27 06:57:08;;;;;;;15.38;3.17;;;;;;;;;;5165975;27;20053;-70
2022/12/27 06:59:34;;;;;;;14.52;2.75;;;;;;;;;;5166428;27;20397;-71
2022/12/27 07:02:00;;;;;;;9.20;2.80;;;;;;;;;;5166369;27;20112;-71
2022/12/27 07:04:27;;;;;;;12.93;3.63;;;;;;;;;;5166741;27;20047;-73
2022/12/27 07:06:53;;;;;;;13.50;3.60;;;;;;;;;;5166661;27;20046;-71
2022/12/27 07:09:20;;;;;;;15.40;3.08;;;;;;;;;;5166071;27;20047;-72
2022/12/27 07:11:46;;;;;;;14.05;2.60;;;;;;;;;;5165708;27;20050;-72
2022/12/27 07:14:13;;;;;;;8.35;2.60;;;;;;;;;;5166874;27;20051;-70
2022/12/27 07:16:39;;;;;;;11.55;2.95;;;;;;;;;;5167452;27;20512;-71
2022/12/27 07:19:08;;;;;;;13.32;2.80;;;;;;;;;;5164027;27;20042;-71
2022/12/27 07:21:35;;;;;;;10.82;2.92;;;;;;;;;;5153397;27;20047;-71
2022/12/27 07:24:01;;;;;;;14.25;3.38;;;;;;;;;;5167939;27;20179;-72
2022/12/27 07:26:29;;;;;;;9.25;2.47;;;;;;;;;;5166156;27;20050;-72
2022/12/27 07:28:56;;;;;;;15.93;3.92;;;;;;;;;;5167407;27;20100;-72
2022/12/27 07:31:25;;;;;;;10.00;3.38;;;;;;;;;;5167535;27;20054;-72
2022/12/27 07:33:52;;;;;;;12.18;2.75;;;;;;;;;;5165718;27;20064;-72
2022/12/27 07:36:19;;;;;;;17.48;3.40;;;;;;;;;;5167755;27;20170;-71
2022/12/27 07:38:46;;;;;;;9.95;3.83;;;;;;;;;;5166825;27;20050;-71
2022/12/27 07:41:13;;;;;;;10.77;2.85;;;;;;;;;;5167288;27;20047;-72
2022/12/27 07:43:39;;;;;;;13.05;3.42;;;;;;;;;;5164375;27;20058;-71
2022/12/27 07:46:09;;;;;;;7.00;2.75;;;;;;;;;;5166706;27;20042;-71
2022/12/27 07:48:36;;;;;;;11.55;2.90;;;;;;;;;;5167310;27;20602;-70
2022/12/27 07:51:03;;;;;;;12.55;2.85;;;;;;;;;;5165927;27;20050;-71
2022/12/27 07:53:29;;;;;;;12.55;3.70;;;;;;;;;;5165432;27;20129;-72
2022/12/27 07:55:56;;;;;;;15.05;3.30;;;;;;;;;;5162839;27;21092;-71
2022/12/27 07:58:23;;;;;;;14.50;3.60;;;;;;;;;;5166775;27;20089;-70
2022/12/27 08:00:50;;;;;;;18.65;4.18;;;;;;;;;;5167364;27;20138;-71
2022/12/27 08:03:16;;;;;;;14.25;3.88;;;;;;;;;;5164456;27;20077;-71
2022/12/27 08:05:44;;;;;;;16.13;4.35;;;;;;;;;;5163797;27;20054;-71
2022/12/27 08:08:11;;;;;;;7.10;3.08;;;;;;;;;;5166830;27;20053;-71
2022/12/27 08:10:39;;;;;;;8.65;2.83;;;;;;;;;;5166290;27;20057;-71
2022/12/27 08:13:06;;;;;;;12.65;4.53;;;;;;;;;;5165226;27;20524;-71
2022/12/27 08:15:32;;;;;;;12.40;3.60;;;;;;;;;;5164926;27;20066;-72
2022/12/27 08:17:59;;;;;;;11.95;3.83;;;;;;;;;;5166846;27;20051;-71
2022/12/27 08:20:26;;;;;;;11.55;3.72;;;;;;;;;;5163267;27;20075;-71
2022/12/27 08:22:52;;;;;;;37.95;7.30;;;;;;;;;;5166504;27;20047;-71
2022/12/27 08:25:19;;;;;;;8.95;3.97;;;;;;;;;;5165102;27;20125;-71
2022/12/27 08:27:45;;;;;;;10.30;3.50;;;;;;;;;;5164454;27;20053;-70
2022/12/27 08:30:12;;;;;;;17.27;4.28;;;;;;;;;;5164633;27;20054;-71
2022/12/27 08:32:39;;;;;;;11.38;4.28;;;;;;;;;;5161104;27;20075;-71
2022/12/27 08:35:05;;;;;;;11.45;3.97;;;;;;;;;;5153511;27;20496;-71
2022/12/27 08:37:51;;;;;;;13.98;4.65;;;;;;;;;;5159038;27;20054;-71
2022/12/27 08:40:18;;;;;;;14.90;4.68;;;;;;;;;;5155145;27;20085;-71
2022/12/27 08:42:45;;;;;;;13.02;4.22;;;;;;;;;;5158718;27;20047;-71
2022/12/27 08:45:11;;;;;;;10.05;4.50;;;;;;;;;;5151905;27;20058;-71
2022/12/27 08:47:38;;;;;;;8.13;3.40;;;;;;;;;;5149019;27;20057;-72
2022/12/27 08:50:06;;;;;;;12.43;4.28;;;;;;;;;;5165131;27;20501;-72
2022/12/27 08:52:32;;;;;;;12.15;5.47;;;;;;;;;;5164968;27;20557;-72
2022/12/27 08:54:59;;;;;;;8.73;3.80;;;;;;;;;;5157223;27;20103;-71
2022/12/27 08:57:25;;;;;;;12.85;5.32;;;;;;;;;;5153507;27;20062;-71
2022/12/27 08:59:51;;;;;;;11.50;4.68;;;;;;;;;;5151464;27;20043;-70
2022/12/27 09:02:18;;;;;;;10.60;4.78;;;;;;;;;;5135021;27;20103;-70
2022/12/27 09:04:44;;;;;;;10.82;4.70;;;;;;;;;;5156080;27;20142;-71
2022/12/27 09:07:11;;;;;;;27.70;6.13;;;;;;;;;;5163917;27;20050;-70
2022/12/27 09:09:37;;;;;;;10.85;6.05;;;;;;;;;;5147016;27;20077;-70
2022/12/27 09:12:04;;;;;;;13.13;4.35;;;;;;;;;;5144628;27;20050;-70
2022/12/27 09:14:34;;;;;;;14.85;4.82;;;;;;;;;;5156300;27;20564;-72
2022/12/27 09:17:02;;;;;;;16.65;5.38;;;;;;;;;;5165728;27;20051;-71
2022/12/27 09:19:28;;;;;;;8.10;4.13;;;;;;;;;;5162529;27;20104;-70
2022/12/27 09:21:54;;;;;;;14.07;4.50;;;;;;;;;;5163312;27;20046;-70
2022/12/27 09:24:21;;;;;;;16.25;4.35;;;;;;;;;;5145474;27;20581;-71
2022/12/27 09:26:47;;;;;;;12.63;4.80;;;;;;;;;;5161127;27;20086;-70
2022/12/27 09:29:14;;;;;;;9.40;4.38;;;;;;;;;;5148972;27;20074;-71
2022/12/27 09:31:40;;;;;;;11.88;4.45;;;;;;;;;;5149853;27;20047;-70
2022/12/27 09:34:08;;;;;;;12.52;4.60;;;;;;;;;;5156513;27;20562;-71
2022/12/27 09:36:36;;;;;;;10.65;4.53;;;;;;;;;;5149965;27;20051;-70
2022/12/27 09:39:03;;;;;;;12.00;4.45;;;;;;;;;;5164713;27;20050;-71
2022/12/27 09:41:35;;;;;;;20.10;5.20;;;;;;;;;;5148326;27;20079;-71
2022/12/27 09:44:27;;;;;;;11.43;4.90;;;;;;;;;;5129763;27;20059;-70
2022/12/27 09:46:57;;;;;;;11.02;4.68;;;;;;;;;;5150108;27;20126;-70
2022/12/27 09:49:28;;;;;;;14.80;5.18;;;;;;;;;;5157935;27;20678;-71
2022/12/27 09:52:06;;;;;;;16.15;5.25;;;;;;;;;;5163671;27;20070;-71
2022/12/27 09:54:41;;;;;;;16.98;5.85;;;;;;;;;;5151799;27;20485;-71
2022/12/27 09:57:20;;;;;;;10.02;4.90;;;;;;;;;;5157087;27;20549;-70
2022/12/27 09:59:48;;;;;;;10.80;5.50;;;;;;;;;;5158376;27;20075;-70
2022/12/27 10:02:22;;;;;;;12.50;5.68;;;;;;;;;;5162276;27;20178;-71
2022/12/27 10:04:49;;;;;;;11.55;6.10;;;;;;;;;;5164829;27;20050;-70
2022/12/27 10:07:50;;;;;;;15.60;6.13;;;;;;;;;;5165234;27;20046;-72
2022/12/27 10:10:24;;;;;;;14.30;6.72;;;;;;;;;;5164285;27;20058;-71
2022/12/27 10:12:57;;;;;;;9.25;5.53;;;;;;;;;;5161944;27;20047;-70
2022/12/27 10:15:32;;;;;;;15.93;7.45;;;;;;;;;;5144524;27;20055;-71
2022/12/27 10:17:58;;;;;;;14.20;8.07;;;;;;;;;;5158897;27;20051;-71
2022/12/27 10:20:40;;;;;;;15.40;7.95;;;;;;;;;;5147759;27;20058;-71
2022/12/27 10:23:13;;;;;;;15.52;7.80;;;;;;;;;;5153945;27;20053;-71
2022/12/27 10:25:40;;;;;;;15.23;7.88;;;;;;;;;;5158414;27;20561;-72
2022/12/27 10:28:15;;;;;;;17.33;6.97;;;;;;;;;;5164401;27;20047;-71
2022/12/27 10:30:42;;;;;;;11.38;6.68;;;;;;;;;;5163621;27;20488;-71
2022/12/27 10:33:17;;;;;;;11.50;6.85;;;;;;;;;;5150169;27;20082;-70
2022/12/27 10:35:44;;;;;;;15.60;7.47;;;;;;;;;;5152977;27;20504;-71
2022/12/27 10:38:10;;;;;;;16.17;7.80;;;;;;;;;;5158112;27;20047;-70
2022/12/27 10:40:38;;;;;;;19.17;8.02;;;;;;;;;;5162965;27;20074;-70
2022/12/27 10:43:11;;;;;;;20.65;8.90;;;;;;;;;;5161583;27;20051;-72
2022/12/27 10:45:41;;;;;;;19.65;9.80;;;;;;;;;;5155700;27;20057;-71
2022/12/27 10:48:27;;;;;;;16.00;8.43;;;;;;;;;;5163150;27;20100;-72
2022/12/27 10:51:14;;;;;;;14.27;8.38;;;;;;;;;;5160141;27;20463;-70
2022/12/27 10:53:47;;;;;;;10.43;6.85;;;;;;;;;;5163886;27;20078;-70
2022/12/27 10:56:13;;;;;;;15.60;8.50;;;;;;;;;;5165466;27;20096;-70
2022/12/27 10:58:41;;;;;;;17.58;7.13;;;;;;;;;;5163657;27;20397;-70
2022/12/27 11:01:15;;;;;;;11.77;7.22;;;;;;;;;;5161973;27;20094;-71
2022/12/27 11:03:42;;;;;;;13.75;7.70;;;;;;;;;;5164637;27;20050;-70
2022/12/27 11:06:24;;;;;;;17.20;6.63;;;;;;;;;;5161011;27;20062;-71
2022/12/27 11:08:52;;;;;;;13.73;6.88;;;;;;;;;;5160929;27;20602;-70
2022/12/27 11:11:20;;;;;;;19.05;7.65;;;;;;;;;;5163999;27;20141;-69
2022/12/27 11:13:46;;;;;;;15.07;7.25;;;;;;;;;;5164990;27;20047;-70
2022/12/27 11:16:16;;;;;;;12.35;6.35;;;;;;;;;;5146582;27;20053;-69
2022/12/27 11:18:47;;;;;;;12.32;6.47;;;;;;;;;;5164124;27;20510;-71
2022/12/27 11:21:14;;;;;;;11.70;6.22;;;;;;;;;;5163353;27;20058;-71
2022/12/27 11:23:54;;;;;;;13.23;5.18;;;;;;;;;;5165040;27;20047;-69
2022/12/27 11:26:26;;;;;;;13.88;5.72;;;;;;;;;;5163318;27;20881;-70
2022/12/27 11:28:53;;;;;;;11.82;5.80;;;;;;;;;;5161170;27;20100;-70
2022/12/27 11:31:30;;;;;;;12.10;5.65;;;;;;;;;;5156066;27;20134;-71
2022/12/27 11:33:59;;;;;;;9.57;6.45;;;;;;;;;;5149455;27;20497;-69
2022/12/27 11:36:30;;;;;;;9.18;5.82;;;;;;;;;;5157536;27;20074;-71
2022/12/27 11:38:57;;;;;;;11.23;6.95;;;;;;;;;;5160124;27;20047;-70
2022/12/27 11:41:29;;;;;;;13.00;6.45;;;;;;;;;;5167694;27;20046;-70
2022/12/27 11:43:55;;;;;;;16.13;6.32;;;;;;;;;;5168025;27;20051;-70
2022/12/27 11:46:37;;;;;;;12.27;6.63;;;;;;;;;;5167181;27;20522;-70
2022/12/27 11:49:05;;;;;;;14.63;7.45;;;;;;;;;;5165776;27;20073;-70
2022/12/27 11:51:37;;;;;;;14.65;6.15;;;;;;;;;;5165209;27;20062;-70
2022/12/27 11:54:09;;;;;;;13.25;7.30;;;;;;;;;;5153399;27;20536;-70
2022/12/27 11:56:39;;;;;;;13.70;7.50;;;;;;;;;;5147290;27;20043;-71
2022/12/27 11:59:12;;;;;;;13.32;6.75;;;;;;;;;;5146057;27;20100;-70
2022/12/27 12:01:57;;;;;;;18.60;7.78;;;;;;;;;;5147285;27;20083;-70
2022/12/27 12:04:43;;;;;;;14.35;7.13;;;;;;;;;;5146529;27;20047;-72
2022/12/27 12:07:28;;;;;;;11.88;6.82;;;;;;;;;;5147111;27;20525;-71
2022/12/27 12:10:09;;;;;;;12.45;6.65;;;;;;;;;;5163847;27;20094;-70
2022/12/27 12:12:36;;;;;;;15.32;6.60;;;;;;;;;;5161895;27;20501;-70
2022/12/27 12:15:06;;;;;;;11.50;5.55;;;;;;;;;;5146599;27;20164;-70
2022/12/27 12:17:55;;;;;;;10.55;5.95;;;;;;;;;;5152292;27;20096;-71
2022/12/27 12:20:21;;;;;;;12.02;5.68;;;;;;;;;;5146245;27;20054;-71
2022/12/27 12:23:06;;;;;;;13.00;5.53;;;;;;;;;;5166656;27;20215;-70
2022/12/27 12:25:33;;;;;;;8.85;5.75;;;;;;;;;;5165314;27;20130;-71
2022/12/27 12:28:29;;;;;;;17.15;5.55;;;;;;;;;;5165813;27;20047;-71
2022/12/27 12:31:18;;;;;;;12.93;5.85;;;;;;;;;;5157563;27;20063;-70
2022/12/27 12:34:05;;;;;;;10.70;5.75;;;;;;;;;;5165127;27;20054;-69
2022/12/27 12:36:38;;;;;;;12.73;5.15;;;;;;;;;;5164849;27;20050;-71
2022/12/27 12:39:23;;;;;;;10.88;5.85;;;;;;;;;;5165431;27;20046;-69
2022/12/27 12:42:08;;;;;;;18.10;5.97;;;;;;;;;;5166225;27;20053;-69
2022/12/27 12:44:34;;;;;;;9.73;5.43;;;;;;;;;;5146079;27;20051;-69
2022/12/27 12:47:13;;;;;;;15.40;5.68;;;;;;;;;;5157246;27;20505;-69
2022/12/27 12:49:45;;;;;;;12.80;5.95;;;;;;;;;;5167261;27;20518;-69
2022/12/27 12:52:18;;;;;;;11.18;4.60;;;;;;;;;;5161370;27;20051;-69
2022/12/27 12:54:50;;;;;;;10.85;5.13;;;;;;;;;;5127646;27;20513;-70
2022/12/27 12:57:16;;;;;;;10.18;5.28;;;;;;;;;;5159105;27;20047;-69
2022/12/27 13:00:03;;;;;;;11.00;5.30;;;;;;;;;;5165632;27;20689;-69
2022/12/27 13:02:43;;;;;;;9.38;4.55;;;;;;;;;;5134927;27;20049;-70
2022/12/27 13:05:13;;;;;;;12.82;5.35;;;;;;;;;;5163141;27;20061;-69
2022/12/27 13:07:40;;;;;;;9.20;4.53;;;;;;;;;;5166285;27;20434;-72
2022/12/27 13:10:19;;;;;;;11.52;5.88;;;;;;;;;;5165844;27;20061;-71
2022/12/27 13:13:08;;;;;;;13.57;5.60;;;;;;;;;;5166298;27;20042;-71
2022/12/27 13:15:34;;;;;;;12.98;5.22;;;;;;;;;;5166235;27;20046;-71
2022/12/27 13:18:13;;;;;;;11.40;5.38;;;;;;;;;;5165043;27;20275;-71
2022/12/27 13:20:59;;;;;;;6.75;5.10;;;;;;;;;;5157561;27;20043;-71
2022/12/27 13:23:33;;;;;;;11.23;5.40;;;;;;;;;;5164594;27;20086;-71
2022/12/27 13:26:05;;;;;;;11.88;5.28;;;;;;;;;;5165567;27;20138;-71
2022/12/27 13:28:32;;;;;;;12.90;6.03;;;;;;;;;;5164173;27;20577;-71
2022/12/27 13:30:58;;;;;;;12.00;6.15;;;;;;;;;;5162586;27;21049;-70
2022/12/27 13:33:24;;;;;;;17.25;5.32;;;;;;;;;;5164752;27;20143;-70
2022/12/27 13:36:09;;;;;;;11.60;5.75;;;;;;;;;;5165676;27;20051;-70
2022/12/27 13:38:42;;;;;;;13.73;5.28;;;;;;;;;;5159946;27;20049;-71
2022/12/27 13:41:33;;;;;;;11.15;5.68;;;;;;;;;;5162335;27;20074;-70
2022/12/27 13:44:02;;;;;;;8.43;5.28;;;;;;;;;;5165463;27;20053;-71
2022/12/27 13:46:41;;;;;;;9.45;4.32;;;;;;;;;;5164945;27;20054;-70
2022/12/27 13:49:27;;;;;;;12.13;4.80;;;;;;;;;;5164367;27;20047;-69
2022/12/27 13:51:56;;;;;;;8.10;4.43;;;;;;;;;;5165156;27;20078;-69
2022/12/27 13:54:22;;;;;;;13.82;4.60;;;;;;;;;;5163542;27;20050;-69
2022/12/27 13:56:50;;;;;;;14.63;5.03;;;;;;;;;;5165128;27;20050;-69
2022/12/27 13:59:39;;;;;;;8.52;3.83;;;;;;;;;;5165392;27;20107;-69
2022/12/27 14:02:16;;;;;;;10.30;4.67;;;;;;;;;;5165500;27;20525;-69
2022/12/27 14:05:01;;;;;;;9.57;5.38;;;;;;;;;;5162460;27;20280;-68
2022/12/27 14:07:45;;;;;;;8.43;4.40;;;;;;;;;;5160886;27;20531;-69
2022/12/27 14:10:24;;;;;;;13.23;4.65;;;;;;;;;;5140491;27;20043;-69
2022/12/27 14:13:00;;;;;;;6.97;4.15;;;;;;;;;;5156901;27;20051;-69
2022/12/27 14:15:27;;;;;;;9.60;3.58;;;;;;;;;;5159457;27;20042;-69
2022/12/27 14:17:53;;;;;;;8.82;3.58;;;;;;;;;;5165265;27;20100;-69
2022/12/27 14:20:25;;;;;;;15.05;4.60;;;;;;;;;;5164236;27;20163;-69
2022/12/27 14:22:52;;;;;;;8.05;4.35;;;;;;;;;;5163362;27;20046;-69
2022/12/27 14:25:38;;;;;;;10.77;4.20;;;;;;;;;;5164270;27;20049;-69
2022/12/27 14:28:14;;;;;;;13.38;5.00;;;;;;;;;;5163276;27;20082;-69
2022/12/27 14:30:59;;;;;;;9.18;4.28;;;;;;;;;;5150528;27;20047;-69
2022/12/27 14:33:37;;;;;;;11.35;4.10;;;;;;;;;;5164550;27;20042;-70
2022/12/27 14:36:22;;;;;;;7.10;3.42;;;;;;;;;;5159970;27;20501;-69
2022/12/27 14:38:52;;;;;;;8.93;4.80;;;;;;;;;;5162749;27;20510;-69
2022/12/27 14:41:24;;;;;;;7.65;4.05;;;;;;;;;;5163969;27;20053;-69
2022/12/27 14:44:09;;;;;;;12.15;4.32;;;;;;;;;;5163512;27;20047;-68
2022/12/27 14:46:47;;;;;;;16.42;5.13;;;;;;;;;;5164007;27;20054;-70
2022/12/27 14:49:16;;;;;;;9.65;3.90;;;;;;;;;;5163105;27;20051;-69
2022/12/27 14:52:06;;;;;;;7.65;4.20;;;;;;;;;;5163863;27;20039;-69
2022/12/27 14:54:53;;;;;;;11.73;4.53;;;;;;;;;;5154563;27;20054;-69
2022/12/27 14:57:19;;;;;;;9.60;4.00;;;;;;;;;;5160520;27;20119;-69
2022/12/27 15:00:00;;;;;;;13.45;4.28;;;;;;;;;;5164124;27;20039;-69
2022/12/27 15:02:49;;;;;;;9.63;4.13;;;;;;;;;;5158908;27;20055;-69
2022/12/27 15:05:23;;;;;;;14.77;4.38;;;;;;;;;;5131715;27;20063;-69
2022/12/27 15:08:08;;;;;;;10.57;4.30;;;;;;;;;;5150329;27;20047;-69
2022/12/27 15:10:52;;;;;;;5.70;4.10;;;;;;;;;;5166459;27;20047;-69
2022/12/27 15:13:22;;;;;;;7.05;3.92;;;;;;;;;;5167047;27;20518;-69
2022/12/27 15:16:00;;;;;;;10.32;4.43;;;;;;;;;;5167559;27;20142;-67
2022/12/27 15:18:26;;;;;;;13.27;4.82;;;;;;;;;;5167121;27;20061;-68
2022/12/27 15:21:04;;;;;;;9.15;4.10;;;;;;;;;;5129012;27;20068;-69
2022/12/27 15:23:35;;;;;;;9.65;4.28;;;;;;;;;;5152824;27;20507;-68
2022/12/27 15:26:02;;;;;;;9.05;4.00;;;;;;;;;;5168630;27;20111;-69
2022/12/27 15:28:57;;;;;;;11.48;4.38;;;;;;;;;;5167722;27;20086;-68
2022/12/27 15:31:43;;;;;;;9.45;3.55;;;;;;;;;;5146493;27;20046;-69
2022/12/27 15:34:12;;;;;;;7.18;4.28;;;;;;;;;;5165376;27;20531;-69
2022/12/27 15:36:40;;;;;;;9.68;3.92;;;;;;;;;;5161654;27;20493;-69
2022/12/27 15:39:25;;;;;;;11.15;4.03;;;;;;;;;;5164663;27;20080;-70
2022/12/27 15:42:04;;;;;;;6.07;3.90;;;;;;;;;;5160250;27;20051;-69
2022/12/27 15:44:39;;;;;;;7.88;4.22;;;;;;;;;;5166169;27;20050;-68
2022/12/27 15:47:19;;;;;;;10.68;5.18;;;;;;;;;;5152954;27;20051;-69
2022/12/27 15:49:58;;;;;;;10.05;4.35;;;;;;;;;;5151985;27;20042;-69
2022/12/27 15:52:30;;;;;;;7.15;4.65;;;;;;;;;;5162437;27;20051;-68
2022/12/27 15:55:06;;;;;;;7.00;4.30;;;;;;;;;;5155652;27;20043;-68
2022/12/27 15:57:35;;;;;;;10.77;4.20;;;;;;;;;;5160622;27;20182;-68
2022/12/27 16:00:15;;;;;;;7.82;4.60;;;;;;;;;;5158535;27;20050;-68
2022/12/27 16:02:48;;;;;;;13.82;4.70;;;;;;;;;;5163361;27;20185;-67
2022/12/27 16:05:17;;;;;;;10.73;4.78;;;;;;;;;;5152096;27;20499;-67
2022/12/27 16:07:50;;;;;;;10.90;4.72;;;;;;;;;;5154540;27;20099;-67
2022/12/27 16:10:29;;;;;;;16.17;5.68;;;;;;;;;;5159012;27;20074;-69
2022/12/27 16:13:14;;;;;;;10.32;4.82;;;;;;;;;;5151985;27;20488;-70
2022/12/27 16:15:43;;;;;;;8.30;4.35;;;;;;;;;;5161941;27;20219;-67
2022/12/27 16:18:19;;;;;;;9.43;5.78;;;;;;;;;;5165823;27;20096;-68
2022/12/27 16:21:01;;;;;;;8.57;4.38;;;;;;;;;;5155113;27;20061;-68
2022/12/27 16:23:48;;;;;;;14.57;5.07;;;;;;;;;;5159802;27;20649;-70
2022/12/27 16:26:20;;;;;;;17.80;5.00;;;;;;;;;;5156673;27;20054;-68
2022/12/27 16:28:52;;;;;;;12.35;4.57;;;;;;;;;;5147256;27;20062;-70
2022/12/27 16:31:20;;;;;;;6.78;4.35;;;;;;;;;;5143935;27;20506;-70
2022/12/27 16:33:47;;;;;;;8.15;4.05;;;;;;;;;;5164392;27;20535;-69